Time;durP1;ratioP1;P1;durP2;ratioP2;P2;SDS_P1;SDS_P2;PMS_P1;PMS_P2;Temp;Humidity;BMP_temperature;BMP_pressure;BME280_temperature;BME280_humidity;BME280_pressure;Samples;Min_cycle;Max_cycle;Signal;HPM_P1;HPM_P2
2023/08/09 00:02:00;;;;;;;;;;;13.60;99.90;;;;;;5053845;28;20342;-43
2023/08/09 00:04:26;;;;;;;;;;;13.50;99.90;;;;;;5033732;28;19925;-43
2023/08/09 00:06:53;;;;;;;;;;;13.50;99.90;;;;;;5034825;28;20296;-44
2023/08/09 00:09:21;;;;;;;;;;;13.50;99.90;;;;;;5050341;28;19932;-44
2023/08/09 00:11:48;;;;;;;;;;;13.50;99.90;;;;;;5053700;28;20423;-44
2023/08/09 00:14:14;;;;;;;;;;;13.50;99.90;;;;;;5036290;28;19979;-44
2023/08/09 00:16:42;;;;;;;;;;;13.50;99.90;;;;;;5033019;28;19967;-43
2023/08/09 00:19:10;;;;;;;;;;;13.40;99.90;;;;;;5033520;28;19929;-43
2023/08/09 00:21:37;;;;;;;;;;;13.40;99.90;;;;;;5033279;28;19929;-44
2023/08/09 00:24:04;;;;;;;;;;;13.40;99.90;;;;;;5033364;28;19932;-43
2023/08/09 00:26:30;;;;;;;;;;;13.40;99.90;;;;;;5034082;28;19932;-44
2023/08/09 00:28:57;;;;;;;;;;;13.40;99.90;;;;;;5035343;28;19979;-43
2023/08/09 00:31:24;;;;;;;;;;;13.40;99.90;;;;;;5034628;28;19933;-44
2023/08/09 00:33:52;;;;;;;;;;;13.40;99.90;;;;;;5034552;28;20302;-42
2023/08/09 00:36:18;;;;;;;;;;;13.40;99.90;;;;;;5034476;28;19929;-44
2023/08/09 00:38:45;;;;;;;;;;;13.40;99.90;;;;;;5047006;28;19926;-42
2023/08/09 00:41:12;;;;;;;;;;;13.40;99.90;;;;;;5033229;28;19972;-43
2023/08/09 00:43:38;;;;;;;;;;;13.40;99.90;;;;;;5033345;28;20442;-43
2023/08/09 00:46:05;;;;;;;;;;;13.40;99.90;;;;;;5042814;28;19986;-43
2023/08/09 00:48:32;;;;;;;;;;;13.40;99.90;;;;;;5053556;28;19932;-44
2023/08/09 00:51:00;;;;;;;;;;;13.40;99.90;;;;;;5038111;28;19947;-44
2023/08/09 00:53:27;;;;;;;;;;;13.40;99.90;;;;;;5034332;28;19925;-43
2023/08/09 00:55:53;;;;;;;;;;;13.40;99.90;;;;;;5038355;28;19925;-43
2023/08/09 00:58:20;;;;;;;;;;;13.40;99.90;;;;;;5054302;28;19928;-44
2023/08/09 01:00:47;;;;;;;;;;;13.50;99.90;;;;;;5040356;28;19972;-44
2023/08/09 01:03:14;;;;;;;;;;;13.40;99.90;;;;;;5033542;28;19932;-43
2023/08/09 01:05:44;;;;;;;;;;;13.50;99.90;;;;;;5044318;28;19924;-44
2023/08/09 01:08:14;;;;;;;;;;;13.50;99.90;;;;;;5052951;28;19924;-44
2023/08/09 01:10:42;;;;;;;;;;;13.50;99.90;;;;;;5040114;28;20293;-44
2023/08/09 01:13:09;;;;;;;;;;;13.50;99.90;;;;;;5032493;28;20380;-44
2023/08/09 01:15:36;;;;;;;;;;;13.50;99.90;;;;;;5043266;28;19929;-44
2023/08/09 01:18:03;;;;;;;;;;;13.50;99.90;;;;;;5033713;28;19925;-43
2023/08/09 01:20:30;;;;;;;;;;;13.50;99.90;;;;;;5041835;28;19925;-44
2023/08/09 01:22:58;;;;;;;;;;;13.50;99.90;;;;;;5052542;28;19931;-43
2023/08/09 01:25:26;;;;;;;;;;;13.50;99.90;;;;;;5048502;28;19930;-43
2023/08/09 01:27:53;;;;;;;;;;;13.50;99.90;;;;;;5033534;28;19925;-43
2023/08/09 01:30:19;;;;;;;;;;;13.50;99.90;;;;;;5032306;28;19929;-43
2023/08/09 01:32:46;;;;;;;;;;;13.50;99.90;;;;;;5033211;28;19925;-44
2023/08/09 01:35:13;;;;;;;;;;;13.50;99.90;;;;;;5038201;28;20384;-43
2023/08/09 01:37:41;;;;;;;;;;;13.50;99.90;;;;;;5041380;28;19933;-44
2023/08/09 01:40:09;;;;;;;;;;;13.60;99.90;;;;;;5033276;28;19929;-44
2023/08/09 01:42:38;;;;;;;;;;;13.50;99.90;;;;;;5032895;28;19971;-44
2023/08/09 01:45:06;;;;;;;;;;;13.60;99.90;;;;;;5036471;28;20288;-44
2023/08/09 01:47:33;;;;;;;;;;;13.60;99.90;;;;;;5043365;28;19932;-44
2023/08/09 01:50:00;;;;;;;;;;;13.60;99.90;;;;;;5033163;28;19929;-44
2023/08/09 01:52:27;;;;;;;;;;;13.60;99.90;;;;;;5033254;28;19925;-43
2023/08/09 01:54:54;;;;;;;;;;;13.60;99.90;;;;;;5034786;28;19929;-44
2023/08/09 01:57:21;;;;;;;;;;;13.50;99.90;;;;;;5051225;28;19931;-43
2023/08/09 01:59:49;;;;;;;;;;;13.60;99.90;;;;;;5035062;28;20265;-44
2023/08/09 02:02:16;;;;;;;;;;;13.60;99.90;;;;;;5032638;28;19929;-44
2023/08/09 02:04:43;;;;;;;;;;;13.50;99.90;;;;;;5030752;28;19931;-44
2023/08/09 02:07:10;;;;;;;;;;;13.50;99.90;;;;;;5032783;28;19991;-44
2023/08/09 02:09:36;;;;;;;;;;;13.50;99.90;;;;;;5031751;28;19979;-44
2023/08/09 02:12:03;;;;;;;;;;;13.50;99.90;;;;;;5031957;28;19929;-43
2023/08/09 02:14:30;;;;;;;;;;;13.50;99.90;;;;;;5031591;28;19952;-43
2023/08/09 02:16:59;;;;;;;;;;;13.50;99.90;;;;;;5050338;28;19925;-44
2023/08/09 02:19:25;;;;;;;;;;;13.40;99.90;;;;;;5038795;28;20296;-44
2023/08/09 02:21:52;;;;;;;;;;;13.40;99.90;;;;;;5032351;28;19926;-44
2023/08/09 02:24:20;;;;;;;;;;;13.40;99.90;;;;;;5032658;28;19979;-44
2023/08/09 02:26:47;;;;;;;;;;;13.40;99.90;;;;;;5049458;28;20372;-44
2023/08/09 02:29:14;;;;;;;;;;;13.40;99.90;;;;;;5052681;28;19925;-44
2023/08/09 02:31:41;;;;;;;;;;;13.30;99.90;;;;;;5042794;28;19972;-44
2023/08/09 02:34:09;;;;;;;;;;;13.30;99.90;;;;;;5031722;28;19972;-44
2023/08/09 02:36:36;;;;;;;;;;;13.30;99.90;;;;;;5047414;28;19924;-44
2023/08/09 02:39:03;;;;;;;;;;;13.30;99.90;;;;;;5051379;28;19929;-44
2023/08/09 02:41:30;;;;;;;;;;;13.20;99.90;;;;;;5051183;28;20296;-44
2023/08/09 02:43:56;;;;;;;;;;;13.20;99.90;;;;;;5050286;28;20018;-43
2023/08/09 02:46:23;;;;;;;;;;;13.20;99.90;;;;;;5039873;28;20391;-44
2023/08/09 02:48:50;;;;;;;;;;;13.10;99.90;;;;;;5032447;28;20381;-44
2023/08/09 02:51:18;;;;;;;;;;;13.10;99.90;;;;;;5032338;28;19933;-44
2023/08/09 02:53:58;;;;;;;;;;;13.10;99.90;;;;;;5031781;28;19933;-44
2023/08/09 02:56:25;;;;;;;;;;;13.00;99.90;;;;;;5047814;28;19978;-44
2023/08/09 02:58:51;;;;;;;;;;;13.00;99.90;;;;;;5055741;28;19967;-44
2023/08/09 03:01:19;;;;;;;;;;;13.00;99.90;;;;;;5047677;28;20249;-44
2023/08/09 03:03:46;;;;;;;;;;;12.90;99.90;;;;;;5035818;28;20423;-44
2023/08/09 03:06:12;;;;;;;;;;;12.90;99.90;;;;;;5034534;28;19932;-44
2023/08/09 03:08:41;;;;;;;;;;;12.80;99.90;;;;;;5035403;28;19925;-44
2023/08/09 03:11:07;;;;;;;;;;;12.80;99.90;;;;;;5036371;28;19926;-44
2023/08/09 03:13:34;;;;;;;;;;;12.80;99.90;;;;;;5035941;28;20007;-44
2023/08/09 03:16:00;;;;;;;;;;;12.70;99.90;;;;;;5044492;28;20293;-44
2023/08/09 03:18:27;;;;;;;;;;;12.70;99.90;;;;;;5055889;28;19924;-44
2023/08/09 03:20:54;;;;;;;;;;;12.70;99.90;;;;;;5054818;28;19925;-44
2023/08/09 03:23:20;;;;;;;;;;;12.70;99.90;;;;;;5044340;28;19936;-43
2023/08/09 03:25:49;;;;;;;;;;;12.60;99.90;;;;;;5040690;28;19976;-44
2023/08/09 03:28:15;;;;;;;;;;;12.60;99.90;;;;;;5038528;28;19929;-45
2023/08/09 03:30:42;;;;;;;;;;;12.60;99.90;;;;;;5034471;28;19925;-44
2023/08/09 03:33:09;;;;;;;;;;;12.60;99.90;;;;;;5035736;28;19924;-44
2023/08/09 03:35:36;;;;;;;;;;;12.50;99.90;;;;;;5034984;28;19968;-44
2023/08/09 03:38:03;;;;;;;;;;;12.50;99.90;;;;;;5034187;28;19968;-44
2023/08/09 03:40:30;;;;;;;;;;;12.50;99.90;;;;;;5035000;28;20551;-44
2023/08/09 03:42:58;;;;;;;;;;;12.50;99.90;;;;;;5035053;28;19932;-44
2023/08/09 03:45:24;;;;;;;;;;;12.40;99.90;;;;;;5034932;28;19925;-44
2023/08/09 03:47:52;;;;;;;;;;;12.40;99.90;;;;;;5034261;28;19936;-44
2023/08/09 03:50:20;;;;;;;;;;;12.40;99.90;;;;;;5035095;28;19925;-44
2023/08/09 03:52:46;;;;;;;;;;;12.40;99.90;;;;;;5035116;28;19931;-44
2023/08/09 03:55:13;;;;;;;;;;;12.30;99.90;;;;;;5033676;28;19929;-43
2023/08/09 03:57:40;;;;;;;;;;;12.30;99.90;;;;;;5055209;28;19925;-43
2023/08/09 04:00:09;;;;;;;;;;;12.30;99.90;;;;;;5053434;28;19925;-44
2023/08/09 04:02:36;;;;;;;;;;;12.30;99.90;;;;;;5034654;28;20301;-44
2023/08/09 04:05:05;;;;;;;;;;;12.30;99.90;;;;;;5033229;28;19929;-44
2023/08/09 04:07:31;;;;;;;;;;;12.30;99.90;;;;;;5015200;28;19935;-44
2023/08/09 04:09:58;;;;;;;;;;;12.20;99.90;;;;;;5023669;28;19933;-44
2023/08/09 04:12:24;;;;;;;;;;;12.20;99.90;;;;;;5027033;28;19960;-43
2023/08/09 04:14:51;;;;;;;;;;;12.20;99.90;;;;;;5032302;28;19933;-44
2023/08/09 04:17:19;;;;;;;;;;;12.10;99.90;;;;;;5049308;28;19924;-43
2023/08/09 04:19:46;;;;;;;;;;;12.20;99.90;;;;;;5034565;28;19925;-44
2023/08/09 04:22:13;;;;;;;;;;;12.20;99.90;;;;;;5034641;28;19948;-44
2023/08/09 04:24:39;;;;;;;;;;;12.10;99.90;;;;;;5032738;28;19991;-44
2023/08/09 04:27:06;;;;;;;;;;;12.10;99.90;;;;;;5042730;28;20434;-44
2023/08/09 04:29:33;;;;;;;;;;;12.10;99.90;;;;;;5034668;28;19955;-44
2023/08/09 04:32:00;;;;;;;;;;;12.10;99.90;;;;;;5033642;28;19952;-44
2023/08/09 04:34:28;;;;;;;;;;;12.00;99.90;;;;;;5031989;28;20019;-44
2023/08/09 04:36:55;;;;;;;;;;;12.00;99.90;;;;;;5046439;28;19928;-44
2023/08/09 04:39:23;;;;;;;;;;;12.00;99.90;;;;;;5054614;28;19982;-44
2023/08/09 04:41:50;;;;;;;;;;;12.00;99.90;;;;;;5053490;28;20027;-44
2023/08/09 04:44:17;;;;;;;;;;;12.00;99.90;;;;;;5054209;28;20426;-44
2023/08/09 04:46:44;;;;;;;;;;;12.00;99.90;;;;;;5051791;28;19933;-44
2023/08/09 04:49:12;;;;;;;;;;;12.00;99.90;;;;;;5053303;28;19925;-44
2023/08/09 04:51:40;;;;;;;;;;;12.00;99.90;;;;;;5042986;28;20296;-45
2023/08/09 04:54:07;;;;;;;;;;;12.00;99.90;;;;;;5034123;28;19931;-44
2023/08/09 04:56:34;;;;;;;;;;;12.00;99.90;;;;;;5041179;28;19925;-44
2023/08/09 04:59:00;;;;;;;;;;;12.00;99.90;;;;;;5053237;28;19929;-44
2023/08/09 05:01:27;;;;;;;;;;;12.10;99.90;;;;;;5041204;28;19925;-44
2023/08/09 05:03:54;;;;;;;;;;;12.00;99.90;;;;;;5046621;28;19935;-44
2023/08/09 05:06:22;;;;;;;;;;;12.10;99.90;;;;;;5039837;28;19925;-44
2023/08/09 05:08:50;;;;;;;;;;;12.10;99.90;;;;;;5034018;28;19932;-44
2023/08/09 05:11:16;;;;;;;;;;;12.10;99.90;;;;;;5033136;28;19925;-44
2023/08/09 05:13:43;;;;;;;;;;;12.10;99.90;;;;;;5045732;28;19925;-44
2023/08/09 05:16:10;;;;;;;;;;;12.10;99.90;;;;;;5043217;28;20381;-44
2023/08/09 05:18:36;;;;;;;;;;;12.10;99.90;;;;;;5032982;28;20289;-44
2023/08/09 05:21:03;;;;;;;;;;;12.10;99.90;;;;;;5029464;28;20396;-44
2023/08/09 05:23:30;;;;;;;;;;;12.10;99.90;;;;;;5028740;28;19931;-43
2023/08/09 05:25:58;;;;;;;;;;;12.10;99.90;;;;;;5030864;28;19925;-43
2023/08/09 05:28:25;;;;;;;;;;;12.20;99.90;;;;;;5049255;28;19925;-43
2023/08/09 05:30:51;;;;;;;;;;;12.20;99.90;;;;;;5032437;28;20338;-42
2023/08/09 05:33:18;;;;;;;;;;;12.20;99.90;;;;;;5032380;28;20438;-45
2023/08/09 05:35:45;;;;;;;;;;;12.20;99.90;;;;;;5033301;28;19925;-44
2023/08/09 05:38:11;;;;;;;;;;;12.30;99.90;;;;;;5032654;28;20288;-44
2023/08/09 05:40:38;;;;;;;;;;;12.30;99.90;;;;;;5032351;28;20341;-42
2023/08/09 05:43:06;;;;;;;;;;;12.40;99.90;;;;;;5031671;28;19933;-44
2023/08/09 05:45:33;;;;;;;;;;;12.40;99.90;;;;;;5032584;28;19925;-44
2023/08/09 05:47:59;;;;;;;;;;;12.50;99.90;;;;;;5031985;28;19979;-44
2023/08/09 05:50:26;;;;;;;;;;;12.60;99.90;;;;;;5033277;28;19925;-44
2023/08/09 05:52:53;;;;;;;;;;;12.60;99.90;;;;;;5031896;28;19925;-43
2023/08/09 05:55:19;;;;;;;;;;;12.80;99.90;;;;;;4993889;22;19929;-43
2023/08/09 05:57:46;;;;;;;;;;;12.80;99.90;;;;;;5011002;28;19979;-43
2023/08/09 06:00:16;;;;;;;;;;;12.80;99.90;;;;;;5029412;28;19932;-43
2023/08/09 06:02:44;;;;;;;;;;;13.00;99.90;;;;;;5024847;28;20443;-43
2023/08/09 06:05:15;;;;;;;;;;;13.10;99.90;;;;;;5015944;28;19925;-44
2023/08/09 06:07:42;;;;;;;;;;;13.20;99.90;;;;;;5029687;28;19925;-42
2023/08/09 06:10:09;;;;;;;;;;;13.30;99.90;;;;;;5029941;28;20266;-44
2023/08/09 06:12:36;;;;;;;;;;;13.40;99.90;;;;;;5031342;28;19925;-43
2023/08/09 06:15:02;;;;;;;;;;;13.50;99.90;;;;;;5028745;28;20400;-44
2023/08/09 06:17:31;;;;;;;;;;;13.60;99.90;;;;;;5026755;28;19925;-43
2023/08/09 06:19:57;;;;;;;;;;;13.70;99.90;;;;;;5029306;28;19932;-43
2023/08/09 06:22:24;;;;;;;;;;;13.80;99.90;;;;;;5029456;28;20027;-43
2023/08/09 06:24:51;;;;;;;;;;;13.90;99.90;;;;;;5028541;28;20118;-43
2023/08/09 06:27:17;;;;;;;;;;;14.10;99.90;;;;;;5029785;28;19925;-43
2023/08/09 06:29:44;;;;;;;;;;;14.20;99.90;;;;;;5030602;28;20377;-44
2023/08/09 06:32:11;;;;;;;;;;;14.30;99.90;;;;;;5028926;28;19925;-42
2023/08/09 06:34:39;;;;;;;;;;;14.40;99.90;;;;;;5027360;28;20356;-44
2023/08/09 06:37:05;;;;;;;;;;;14.60;99.90;;;;;;5027929;28;19926;-43
2023/08/09 06:39:33;;;;;;;;;;;14.70;99.90;;;;;;5023345;28;19925;-43
2023/08/09 06:42:00;;;;;;;;;;;14.90;99.90;;;;;;5028542;28;20377;-43
2023/08/09 06:44:27;;;;;;;;;;;15.00;99.90;;;;;;5027047;28;19925;-43
2023/08/09 06:46:54;;;;;;;;;;;15.20;99.90;;;;;;5028291;28;19979;-43
2023/08/09 06:49:22;;;;;;;;;;;15.20;99.90;;;;;;5024927;28;19952;-44
2023/08/09 06:51:51;;;;;;;;;;;15.30;99.90;;;;;;5023204;28;19925;-43
2023/08/09 06:54:18;;;;;;;;;;;15.50;99.90;;;;;;5023685;28;19925;-43
2023/08/09 06:56:44;;;;;;;;;;;15.60;99.90;;;;;;5026886;28;19931;-44
2023/08/09 06:59:11;;;;;;;;;;;15.80;99.90;;;;;;5026077;28;20296;-44
2023/08/09 07:01:38;;;;;;;;;;;15.90;99.90;;;;;;5028274;28;19925;-43
2023/08/09 07:04:05;;;;;;;;;;;16.00;99.90;;;;;;5027906;28;20292;-43
2023/08/09 07:06:32;;;;;;;;;;;16.20;99.90;;;;;;5026134;28;19933;-43
2023/08/09 07:09:00;;;;;;;;;;;16.30;99.90;;;;;;5029357;28;19961;-43
2023/08/09 07:11:26;;;;;;;;;;;16.40;99.90;;;;;;5029338;28;19979;-43
2023/08/09 07:13:53;;;;;;;;;;;16.50;99.90;;;;;;5026259;28;19925;-44
2023/08/09 07:16:20;;;;;;;;;;;16.70;99.90;;;;;;5026358;28;20546;-42
2023/08/09 07:18:46;;;;;;;;;;;16.80;99.90;;;;;;5027478;28;19929;-43
2023/08/09 07:21:13;;;;;;;;;;;16.90;99.90;;;;;;5027464;28;19929;-44
2023/08/09 07:23:40;;;;;;;;;;;17.10;99.90;;;;;;5029340;28;19925;-44
2023/08/09 07:26:08;;;;;;;;;;;17.20;99.90;;;;;;5028513;28;19937;-42
2023/08/09 07:28:35;;;;;;;;;;;17.40;99.90;;;;;;5018224;28;19936;-43
2023/08/09 07:31:02;;;;;;;;;;;17.50;99.90;;;;;;5018667;28;19930;-43
2023/08/09 07:33:28;;;;;;;;;;;17.60;99.90;;;;;;5025879;28;19937;-43
2023/08/09 07:35:55;;;;;;;;;;;17.80;99.90;;;;;;5028078;28;20464;-42
2023/08/09 07:38:22;;;;;;;;;;;17.90;99.90;;;;;;5028818;28;20381;-43
2023/08/09 07:40:49;;;;;;;;;;;18.00;99.90;;;;;;5031700;28;19948;-44
2023/08/09 07:43:17;;;;;;;;;;;18.10;99.90;;;;;;5032972;28;20011;-43
2023/08/09 07:45:48;;;;;;;;;;;18.20;99.90;;;;;;5030006;28;19953;-43
2023/08/09 07:48:15;;;;;;;;;;;18.30;99.90;;;;;;5016404;28;19925;-43
2023/08/09 07:50:41;;;;;;;;;;;18.40;99.90;;;;;;5033026;28;20358;-44
2023/08/09 07:53:08;;;;;;;;;;;18.50;99.90;;;;;;5024197;28;19929;-44
2023/08/09 07:55:35;;;;;;;;;;;18.60;99.90;;;;;;5031254;28;19987;-43
2023/08/09 07:58:01;;;;;;;;;;;18.80;99.90;;;;;;5029239;28;20293;-43
2023/08/09 08:00:29;;;;;;;;;;;18.80;99.90;;;;;;5031060;28;20017;-43
2023/08/09 08:02:56;;;;;;;;;;;19.00;99.90;;;;;;5029067;28;19936;-43
2023/08/09 08:05:23;;;;;;;;;;;19.10;99.90;;;;;;5029312;28;19929;-43
2023/08/09 08:07:49;;;;;;;;;;;19.20;99.90;;;;;;5032720;28;19965;-43
2023/08/09 08:10:16;;;;;;;;;;;19.30;99.90;;;;;;5028371;28;20431;-43
2023/08/09 08:12:43;;;;;;;;;;;19.40;99.90;;;;;;5024703;28;20374;-43
2023/08/09 08:15:12;;;;;;;;;;;19.50;99.90;;;;;;5022148;28;19925;-43
2023/08/09 08:17:40;;;;;;;;;;;19.70;99.90;;;;;;5033022;28;20012;-44
2023/08/09 08:20:15;;;;;;;;;;;19.80;99.90;;;;;;5030648;28;20290;-42
2023/08/09 08:22:42;;;;;;;;;;;19.90;99.90;;;;;;5027191;28;20293;-43
2023/08/09 08:25:10;;;;;;;;;;;19.90;99.90;;;;;;5030914;28;19929;-43
2023/08/09 08:27:37;;;;;;;;;;;20.00;99.90;;;;;;5030849;28;20389;-43
2023/08/09 08:30:04;;;;;;;;;;;20.10;99.90;;;;;;5030945;28;19925;-43
2023/08/09 08:32:31;;;;;;;;;;;20.20;99.90;;;;;;5030520;28;19929;-42
2023/08/09 08:35:02;;;;;;;;;;;20.40;99.90;;;;;;5031182;28;20380;-44
2023/08/09 08:37:28;;;;;;;;;;;20.40;99.90;;;;;;5026125;28;19932;-43
2023/08/09 08:39:55;;;;;;;;;;;20.50;99.90;;;;;;5033108;28;19933;-44
2023/08/09 08:42:22;;;;;;;;;;;20.60;99.90;;;;;;5031855;28;19979;-44
2023/08/09 08:44:49;;;;;;;;;;;20.70;99.90;;;;;;5032776;28;19925;-43
2023/08/09 08:47:16;;;;;;;;;;;20.80;99.90;;;;;;5032154;28;19971;-44
2023/08/09 08:49:44;;;;;;;;;;;21.00;99.90;;;;;;5032177;28;19925;-43
2023/08/09 08:52:12;;;;;;;;;;;21.10;99.90;;;;;;5031615;28;19925;-45
2023/08/09 08:54:39;;;;;;;;;;;21.20;99.90;;;;;;5027549;28;20014;-44
2023/08/09 08:57:07;;;;;;;;;;;21.40;99.90;;;;;;5030546;28;19937;-43
2023/08/09 08:59:34;;;;;;;;;;;21.50;99.90;;;;;;5029789;28;19925;-43
2023/08/09 09:02:02;;;;;;;;;;;21.70;99.90;;;;;;5020703;28;20020;-44
2023/08/09 09:04:29;;;;;;;;;;;21.80;99.90;;;;;;5020263;28;19929;-44
2023/08/09 09:06:56;;;;;;;;;;;21.80;99.90;;;;;;5030938;28;19925;-43
2023/08/09 09:09:25;;;;;;;;;;;21.80;99.90;;;;;;5031233;28;19979;-43
2023/08/09 09:11:51;;;;;;;;;;;21.70;99.90;;;;;;5030265;28;20292;-43
2023/08/09 09:14:18;;;;;;;;;;;21.70;99.90;;;;;;5027177;28;20466;-43
2023/08/09 09:16:45;;;;;;;;;;;21.70;99.90;;;;;;5030766;28;19925;-44
2023/08/09 09:19:12;;;;;;;;;;;21.80;99.90;;;;;;5027032;28;19948;-43
2023/08/09 09:21:40;;;;;;;;;;;22.00;99.90;;;;;;5028063;28;19925;-44
2023/08/09 09:24:07;;;;;;;;;;;22.00;99.90;;;;;;5032229;28;19925;-44
2023/08/09 09:26:35;;;;;;;;;;;21.80;99.90;;;;;;5027335;28;20016;-43
2023/08/09 09:29:02;;;;;;;;;;;21.70;99.90;;;;;;5024165;28;19971;-43
2023/08/09 09:31:34;;;;;;;;;;;21.50;99.90;;;;;;5031006;28;19925;-43
2023/08/09 09:34:01;;;;;;;;;;;21.40;99.90;;;;;;5024147;28;20420;-44
2023/08/09 09:36:27;;;;;;;;;;;21.50;99.90;;;;;;5026408;28;19925;-43
2023/08/09 09:38:54;;;;;;;;;;;21.70;99.90;;;;;;5025184;28;19925;-44
2023/08/09 09:41:21;;;;;;;;;;;21.90;99.90;;;;;;5014072;28;19990;-44
2023/08/09 09:43:51;;;;;;;;;;;22.00;99.90;;;;;;5030605;28;19929;-43
2023/08/09 09:46:18;;;;;;;;;;;22.00;99.90;;;;;;5028875;28;20349;-44
2023/08/09 09:48:47;;;;;;;;;;;22.10;99.90;;;;;;5030560;28;20008;-43
2023/08/09 09:51:14;;;;;;;;;;;22.20;99.90;;;;;;5031276;28;19926;-43
2023/08/09 09:53:42;;;;;;;;;;;22.40;99.90;;;;;;5017829;28;20217;-43
2023/08/09 09:56:09;;;;;;;;;;;22.60;99.90;;;;;;5028428;28;20196;-43
2023/08/09 09:58:36;;;;;;;;;;;22.60;99.90;;;;;;5030261;28;19979;-45
2023/08/09 10:01:04;;;;;;;;;;;22.60;99.90;;;;;;5030065;28;19925;-43
2023/08/09 10:03:31;;;;;;;;;;;22.70;99.90;;;;;;5028607;28;20016;-42
2023/08/09 10:05:58;;;;;;;;;;;22.80;99.90;;;;;;5028975;28;19932;-44
2023/08/09 10:08:25;;;;;;;;;;;22.80;99.90;;;;;;5026678;28;20015;-43
2023/08/09 10:10:51;;;;;;;;;;;22.70;99.90;;;;;;5028753;28;19925;-43
2023/08/09 10:13:19;;;;;;;;;;;22.60;99.90;;;;;;5031339;28;19995;-44
2023/08/09 10:15:47;;;;;;;;;;;22.60;99.90;;;;;;5030473;28;19944;-43
2023/08/09 10:18:16;;;;;;;;;;;22.60;99.90;;;;;;5029457;28;19931;-44
2023/08/09 10:20:44;;;;;;;;;;;22.70;99.90;;;;;;5029600;28;19975;-44
2023/08/09 10:23:18;;;;;;;;;;;22.70;99.90;;;;;;5029623;28;19925;-44
2023/08/09 10:25:45;;;;;;;;;;;22.60;99.90;;;;;;5030476;28;19936;-43
2023/08/09 10:28:12;;;;;;;;;;;22.60;99.90;;;;;;5029949;28;19929;-43
2023/08/09 10:30:46;;;;;;;;;;;22.50;99.90;;;;;;5027446;28;19925;-43
2023/08/09 10:33:18;;;;;;;;;;;22.50;99.90;;;;;;5029119;28;19925;-43
2023/08/09 10:35:47;;;;;;;;;;;22.50;99.80;;;;;;5030790;28;20357;-43
2023/08/09 10:38:14;;;;;;;;;;;22.50;99.90;;;;;;5028290;28;19926;-43
2023/08/09 10:40:41;;;;;;;;;;;22.50;99.80;;;;;;5021367;28;19926;-44
2023/08/09 10:43:08;;;;;;;;;;;22.50;99.90;;;;;;5027586;28;19925;-44
2023/08/09 10:45:34;;;;;;;;;;;22.50;99.80;;;;;;5027695;28;19929;-44
2023/08/09 10:48:16;;;;;;;;;;;22.50;98.40;;;;;;5030370;28;20373;-45
2023/08/09 10:50:42;;;;;;;;;;;22.40;99.90;;;;;;5032445;28;20352;-44
2023/08/09 10:53:10;;;;;;;;;;;22.50;99.90;;;;;;5029544;28;20304;-43
2023/08/09 10:55:37;;;;;;;;;;;22.50;99.10;;;;;;5019108;28;19976;-44
2023/08/09 10:58:04;;;;;;;;;;;22.60;99.00;;;;;;5020829;28;20023;-44
2023/08/09 11:00:37;;;;;;;;;;;22.80;97.90;;;;;;5027087;28;19925;-44
2023/08/09 11:03:05;;;;;;;;;;;22.80;97.50;;;;;;5022104;28;19925;-44
2023/08/09 11:05:31;;;;;;;;;;;22.90;98.20;;;;;;5019917;28;19925;-44
2023/08/09 11:07:59;;;;;;;;;;;22.90;95.70;;;;;;5026567;28;19969;-43
2023/08/09 11:10:35;;;;;;;;;;;23.10;97.20;;;;;;5031637;28;19987;-44
2023/08/09 11:13:05;;;;;;;;;;;23.30;94.90;;;;;;5028801;28;19925;-44
2023/08/09 11:15:32;;;;;;;;;;;23.40;95.80;;;;;;5026683;28;19932;-43
2023/08/09 11:17:59;;;;;;;;;;;23.60;95.90;;;;;;5016973;28;19930;-44
2023/08/09 11:20:25;;;;;;;;;;;23.70;96.40;;;;;;5033932;28;19925;-44
2023/08/09 11:22:53;;;;;;;;;;;23.90;93.80;;;;;;5035897;28;19925;-44
2023/08/09 11:25:19;;;;;;;;;;;24.20;96.20;;;;;;5034576;28;20347;-44
2023/08/09 11:27:47;;;;;;;;;;;24.30;94.40;;;;;;5033609;28;19979;-43
2023/08/09 11:30:15;;;;;;;;;;;24.40;94.20;;;;;;5030771;28;19971;-44
2023/08/09 11:32:42;;;;;;;;;;;24.40;93.10;;;;;;5026777;28;19926;-43
2023/08/09 11:35:09;;;;;;;;;;;24.40;94.60;;;;;;5023432;28;19929;-44
2023/08/09 11:37:36;;;;;;;;;;;24.50;93.10;;;;;;5033871;28;19933;-44
2023/08/09 11:40:04;;;;;;;;;;;24.60;93.80;;;;;;5034318;28;20297;-44
2023/08/09 11:42:30;;;;;;;;;;;24.80;94.80;;;;;;5024955;28;19925;-43
2023/08/09 11:44:58;;;;;;;;;;;25.00;93.70;;;;;;5033061;28;20304;-44
2023/08/09 11:47:26;;;;;;;;;;;25.20;91.80;;;;;;5033327;28;19925;-43
2023/08/09 11:49:53;;;;;;;;;;;25.20;93.20;;;;;;5031381;28;19925;-44
2023/08/09 11:52:19;;;;;;;;;;;25.20;93.60;;;;;;5035373;28;19980;-44
2023/08/09 11:54:46;;;;;;;;;;;25.20;93.20;;;;;;5029669;28;20012;-44
2023/08/09 11:57:13;;;;;;;;;;;25.00;93.80;;;;;;5044950;28;19975;-44
2023/08/09 11:59:40;;;;;;;;;;;24.80;94.50;;;;;;5027738;28;19932;-44
2023/08/09 12:02:08;;;;;;;;;;;24.70;95.60;;;;;;5027467;28;20455;-43
2023/08/09 12:04:38;;;;;;;;;;;24.70;95.10;;;;;;5031978;28;19925;-44
2023/08/09 12:07:06;;;;;;;;;;;24.90;96.00;;;;;;5026218;28;20020;-44
2023/08/09 12:09:34;;;;;;;;;;;25.10;95.50;;;;;;5026724;28;20377;-45
2023/08/09 12:12:04;;;;;;;;;;;25.20;93.70;;;;;;5035196;28;20343;-44
2023/08/09 12:14:31;;;;;;;;;;;25.00;92.90;;;;;;5034135;28;20377;-44
2023/08/09 12:16:58;;;;;;;;;;;24.90;94.30;;;;;;5027961;28;19991;-44
2023/08/09 12:19:26;;;;;;;;;;;24.80;94.00;;;;;;5030730;28;19932;-44
2023/08/09 12:21:53;;;;;;;;;;;24.70;93.50;;;;;;5024350;28;20296;-44
2023/08/09 12:24:20;;;;;;;;;;;24.60;93.80;;;;;;5026009;28;19925;-44
2023/08/09 12:26:46;;;;;;;;;;;24.40;94.40;;;;;;5033325;28;19926;-43
2023/08/09 12:29:14;;;;;;;;;;;24.30;92.70;;;;;;5032730;28;19968;-44
2023/08/09 12:31:41;;;;;;;;;;;24.20;94.50;;;;;;5033698;28;20015;-44
2023/08/09 12:34:10;;;;;;;;;;;24.00;95.80;;;;;;5033665;28;19925;-45
2023/08/09 12:36:38;;;;;;;;;;;24.00;94.60;;;;;;5032923;28;20455;-44
2023/08/09 12:39:07;;;;;;;;;;;23.90;94.70;;;;;;5032408;28;19929;-44
2023/08/09 12:41:33;;;;;;;;;;;23.90;96.00;;;;;;5029334;28;20213;-44
2023/08/09 12:44:00;;;;;;;;;;;24.00;96.10;;;;;;5020983;28;20443;-43
2023/08/09 12:46:27;;;;;;;;;;;24.10;97.00;;;;;;5025996;28;19933;-44
2023/08/09 12:48:53;;;;;;;;;;;24.30;97.30;;;;;;5027881;28;19936;-44
2023/08/09 12:51:22;;;;;;;;;;;24.60;94.30;;;;;;5032731;28;19975;-44
2023/08/09 12:53:50;;;;;;;;;;;24.80;95.30;;;;;;5024953;28;19930;-44
2023/08/09 12:56:17;;;;;;;;;;;24.90;93.00;;;;;;5028006;28;19929;-44
2023/08/09 12:58:44;;;;;;;;;;;24.90;95.00;;;;;;5025271;28;20336;-44
2023/08/09 13:01:12;;;;;;;;;;;24.80;94.60;;;;;;5026541;28;19932;-44
2023/08/09 13:03:38;;;;;;;;;;;24.70;95.30;;;;;;5021543;28;19934;-44
2023/08/09 13:06:05;;;;;;;;;;;24.50;94.80;;;;;;5021142;28;20347;-44
2023/08/09 13:08:32;;;;;;;;;;;24.30;94.50;;;;;;5022744;28;20381;-44
2023/08/09 13:11:00;;;;;;;;;;;24.10;94.90;;;;;;5030339;28;19936;-43
2023/08/09 13:13:27;;;;;;;;;;;23.90;94.90;;;;;;5027411;28;19925;-44
2023/08/09 13:15:53;;;;;;;;;;;23.90;95.60;;;;;;5013369;28;20365;-44
2023/08/09 13:18:20;;;;;;;;;;;23.90;95.60;;;;;;5026851;28;19987;-44
2023/08/09 13:20:47;;;;;;;;;;;24.00;94.20;;;;;;5017180;28;19925;-44
2023/08/09 13:23:14;;;;;;;;;;;24.10;95.20;;;;;;5030298;28;19940;-44
2023/08/09 13:25:40;;;;;;;;;;;24.00;93.00;;;;;;5017319;28;19971;-44
2023/08/09 13:28:09;;;;;;;;;;;23.90;93.40;;;;;;5025510;28;19979;-44
2023/08/09 13:30:36;;;;;;;;;;;23.80;94.90;;;;;;5024992;28;19929;-44
2023/08/09 13:33:03;;;;;;;;;;;23.90;96.20;;;;;;5026026;28;19968;-44
2023/08/09 13:35:30;;;;;;;;;;;24.00;95.80;;;;;;5027382;28;19925;-44
2023/08/09 13:37:56;;;;;;;;;;;24.00;95.20;;;;;;5024126;28;19925;-44
2023/08/09 13:40:23;;;;;;;;;;;24.00;94.90;;;;;;5024759;28;19925;-44
2023/08/09 13:42:50;;;;;;;;;;;24.20;95.80;;;;;;5019351;28;20344;-44
2023/08/09 13:45:18;;;;;;;;;;;24.40;95.30;;;;;;5026332;28;19925;-45
2023/08/09 13:47:45;;;;;;;;;;;24.50;91.90;;;;;;5022115;28;19940;-45
2023/08/09 13:50:14;;;;;;;;;;;24.50;93.90;;;;;;5027106;28;19932;-44
2023/08/09 13:52:42;;;;;;;;;;;24.40;93.40;;;;;;5032865;28;19929;-43
2023/08/09 13:55:09;;;;;;;;;;;24.40;93.00;;;;;;5030696;28;20163;-45
2023/08/09 13:57:35;;;;;;;;;;;24.50;92.90;;;;;;5029256;28;20369;-45
2023/08/09 14:00:03;;;;;;;;;;;24.50;93.00;;;;;;5027741;28;20425;-44
2023/08/09 14:02:32;;;;;;;;;;;24.40;91.30;;;;;;5030062;28;20015;-44
2023/08/09 14:04:59;;;;;;;;;;;24.20;93.20;;;;;;5029555;28;19929;-44
2023/08/09 14:07:25;;;;;;;;;;;24.20;94.30;;;;;;5033163;28;19928;-44
2023/08/09 14:09:52;;;;;;;;;;;24.20;93.10;;;;;;5031320;28;19932;-44
2023/08/09 14:12:19;;;;;;;;;;;24.10;91.50;;;;;;5025372;28;20422;-44
2023/08/09 14:14:45;;;;;;;;;;;24.10;92.30;;;;;;5029614;28;19932;-44
2023/08/09 14:17:12;;;;;;;;;;;24.10;92.20;;;;;;5024296;28;19933;-44